Aviation Digital Data Service (ADDS)

Output produced by METARs form (0927 UTC 25 November 2017)
found at http://www.aviationweather.gov/adds/metars/
 
KCXY 250856Z AUTO 00000KT 10SM CLR 00/M03 A2984 RMK AO2 SLP107 T00001033 56013
KCXY 250756Z AUTO 00000KT 10SM CLR M01/M03 A2986 RMK AO2 SLP113 T10061033
KCXY 250656Z AUTO 00000KT 10SM CLR 01/M03 A2986 RMK AO2 SLP113 T00111028
KCXY 250556Z AUTO 12006KT 10SM CLR 00/M04 A2988 RMK AO2 SLP120 T00001039 10072 20000 58017
KCXY 250456Z AUTO 00000KT 10SM CLR 01/M03 A2990 RMK AO2 SLP129 T00061033 401221044
KCXY 250356Z AUTO 00000KT 10SM CLR 02/M03 A2992 RMK AO2 SLP135 T00221028
KCXY 250256Z AUTO 12004KT 10SM CLR 05/M03 A2993 RMK AO2 SLP137 T00501028 58002
KCXY 250156Z 13006KT 10SM CLR 06/M03 A2993 RMK AO2 SLP140 T00611028
KCXY 250056Z 14006KT 10SM CLR 06/M04 A2993 RMK AO2 SLP140 T00611039
KCXY 242356Z 14003KT 10SM CLR 04/M03 A2993 RMK AO2 SLP140 T00441033 10122 20044 50001
KCXY 242256Z 14003KT 10SM CLR 07/M04 A2994 RMK AO2 SLP142 T00671044
KCXY 242156Z 18004KT 10SM CLR 10/M07 A2993 RMK AO2 SLP140 T01001067
KCXY 242056Z 21005KT 10SM CLR 11/M06 A2993 RMK AO2 SLP139 T01111056 56018
KCXY 241956Z 16005KT 10SM CLR 12/M07 A2994 RMK AO2 SLP140 T01221067
KCXY 241856Z 00000KT 10SM CLR 11/M07 A2996 RMK AO2 SLP147 T01111067
KCXY 241756Z 08004KT 10SM CLR 10/M05 A2998 RMK AO2 SLP158 T01001050 10106 21039 58026
KCXY 241656Z 07003KT 10SM CLR 09/M04 A3002 RMK AO2 SLP169 T00891039
KCXY 241556Z 00000KT 10SM CLR 07/M03 A3005 RMK AO2 SLP180 T00671033
KCXY 241456Z 00000KT 10SM CLR 04/M03 A3006 RMK AO2 SLP184 T00391033 58001
KCXY 241356Z 00000KT 10SM CLR 01/M04 A3007 RMK AO2 SLP187 T00061044
KCXY 241256Z 00000KT 10SM CLR M02/M06 A3007 RMK AO2 SLP188 T10221056
KCXY 241156Z 25003KT 10SM CLR M03/M06 A3007 RMK AO2 SLP187 T10331061 11017 21044 53004
KCXY 241056Z AUTO 23003KT 10SM CLR M03/M06 A3006 RMK AO2 SLP183 T10331061
KCXY 240956Z AUTO 24003KT 10SM CLR M04/M06 A3006 RMK AO2 SLP183 T10391061
KCXY 240856Z AUTO 00000KT 10SM CLR M03/M06 A3005 RMK AO2 SLP182 T10331061 51002
KCXY 240756Z AUTO 00000KT 10SM CLR M03/M06 A3005 RMK AO2 SLP181 T10281056
KCXY 240656Z AUTO 23003KT 10SM CLR M03/M06 A3005 RMK AO2 SLP182 T10281061
KCXY 240556Z AUTO 00000KT 10SM CLR M02/M06 A3005 RMK AO2 SLP179 T10221061 10011 21028 58003
KCXY 240456Z AUTO 25003KT 10SM CLR M02/M06 A3006 RMK AO2 SLP182 T10171056 400671028
KCXY 240356Z AUTO 00000KT 10SM CLR M01/M06 A3006 RMK AO2 SLP182 T10111056
KCXY 240256Z AUTO 25003KT 10SM CLR M01/M06 A3006 RMK AO2 SLP182 T10111056 53008
KCXY 240156Z 00000KT 10SM CLR M01/M06 A3004 RMK AO2 SLP177 T10061056
KCXY 240056Z 00000KT 9SM CLR 00/M05 A3003 RMK AO2 SLP175 T00001050
KCXY 232356Z 00000KT 10SM CLR 01/M05 A3003 RMK AO2 SLP175 T00111050 10067 20006 58003
KCXY 232256Z 00000KT 10SM FEW120 02/M06 A3004 RMK AO2 SLP178 T00171056
KCXY 232156Z 00000KT 10SM CLR 05/M06 A3004 RMK AO2 SLP177 T00501061